Main page
METAR-TAF:

METAR-TAF

Airports :

Dr. Babasaheb Ambedkar International Airport

Nagpur, India

latitude: 21-06N, longitude: 079-03E, elevation: 308 m

Current weather observation

The report was made 39 minutes ago, at 21:00 UTC
Wind 5 kt from the North/Northwest
Temperature 19°C
Humidity 78%
Pressure 1008 hPa
Visibility: 3000 m
Scattered clouds at a height of 10000 ft
haze

METAR: VANP 222100Z 33005KT 3000 HZ SCT100 19/15 Q1008 NOSIG

Time: 03:09 (21:39 UTC)

Forecast

The report was made 1 hour and 39 minutes ago, at 20:00 UTC
Forecast valid from 22 at 21 UTC to 23 at 06 UTC
Wind 3 kt from the North
Visibility: 2000 m
Few clouds at a height of 10000 ft
mist
Becoming
from 23 at 04 UTC to 23 at 06 UTC
Wind 5 kt from the North
Visibility: 3000 m
haze

TAF: VANP 222000Z 2221/2306 01003KT 2000 BR FEW100 BECMG 2304/2306 36005KT 3000 HZ NSC

Weather observations and forecasts of more than 4000 airports (METAR and TAF reports).

The available stations are represented by yellow and red dots on the map.

Hover mouse over dot to see the name of the station.

Then click to see weather observations and forecasts.

To change the map : click on the green buttons with a black cross to zoom in, on the green button with a dash to zoom out, or on the green arrows for adjacent maps.


METAR-TAF: